Time;durP1;ratioP1;P1;durP2;ratioP2;P2;SDS_P1;SDS_P2;PMS_P1;PMS_P2;Temp;Humidity;BMP_temperature;BMP_pressure;BME280_temperature;BME280_humidity;BME280_pressure;Samples;Min_cycle;Max_cycle;Signal;HPM_P1;HPM_P2
2021/06/27 00:02:10;;;;;;;6.63;5.77;;;19.30;99.90;;;;;;4926827;29;21609;-90
2021/06/27 00:04:38;;;;;;;8.70;5.70;;;19.30;99.90;;;;;;4932997;28;20635;-90
2021/06/27 00:07:05;;;;;;;6.20;5.77;;;19.30;99.90;;;;;;4928942;29;21166;-90
2021/06/27 00:09:34;;;;;;;6.80;6.13;;;19.20;99.90;;;;;;4928722;29;21030;-91
2021/06/27 00:12:01;;;;;;;6.03;5.60;;;19.20;99.90;;;;;;4924077;29;21276;-90
2021/06/27 00:14:29;;;;;;;6.80;6.30;;;19.20;99.90;;;;;;4918932;29;20635;-91
2021/06/27 00:16:57;;;;;;;5.70;5.40;;;19.20;99.90;;;;;;4920944;29;20655;-90
2021/06/27 00:19:24;;;;;;;6.60;6.10;;;19.20;99.90;;;;;;4930304;28;20624;-91
2021/06/27 00:21:52;;;;;;;8.00;5.20;;;19.10;99.90;;;;;;4934025;29;20735;-90
2021/06/27 00:24:20;;;;;;;6.57;5.90;;;19.10;99.90;;;;;;4930420;29;20639;-90
2021/06/27 00:26:47;;;;;;;5.80;5.37;;;19.10;99.90;;;;;;4927659;29;20702;-91
2021/06/27 00:29:14;;;;;;;5.00;4.60;;;19.10;99.90;;;;;;4938028;28;20631;-91
2021/06/27 00:31:41;;;;;;;6.23;5.73;;;19.10;99.90;;;;;;4933460;29;20631;-89
2021/06/27 00:34:10;;;;;;;5.87;5.40;;;19.10;99.90;;;;;;4930706;29;20639;-89
2021/06/27 00:36:37;;;;;;;5.50;5.00;;;19.10;99.90;;;;;;4928473;29;20675;-89
2021/06/27 00:39:06;;;;;;;6.00;5.00;;;18.90;99.90;;;;;;4931882;29;21554;-89
2021/06/27 00:41:33;;;;;;;4.83;4.43;;;19.00;99.90;;;;;;4925630;29;20674;-89
2021/06/27 00:44:00;;;;;;;5.33;4.87;;;19.00;99.90;;;;;;4933029;29;20643;-89
2021/06/27 00:46:27;;;;;;;5.40;5.00;;;19.00;99.90;;;;;;4931827;29;20627;-89
2021/06/27 00:48:53;;;;;;;5.70;5.23;;;18.90;99.90;;;;;;4927025;29;21005;-88
2021/06/27 00:51:22;;;;;;;5.30;4.80;;;18.80;99.90;;;;;;4926769;28;21253;-90
2021/06/27 00:53:49;;;;;;;5.33;4.67;;;18.90;99.90;;;;;;4928328;29;20640;-90
2021/06/27 00:56:20;;;;;;;4.57;4.27;;;18.90;99.90;;;;;;4928943;29;20666;-89
2021/06/27 00:58:47;;;;;;;6.27;5.67;;;18.90;99.90;;;;;;4926381;29;21100;-89
2021/06/27 01:01:14;;;;;;;4.83;4.47;;;18.90;99.90;;;;;;4933930;29;20666;-91
2021/06/27 01:03:41;;;;;;;7.63;5.87;;;18.90;99.90;;;;;;4922333;29;21184;-90
2021/06/27 01:06:08;;;;;;;5.50;5.10;;;18.80;99.90;;;;;;4936420;29;20623;-91
2021/06/27 01:08:35;;;;;;;9.87;4.83;;;18.90;99.90;;;;;;4935121;29;20626;-90
2021/06/27 01:11:02;;;;;;;4.70;4.40;;;18.90;99.90;;;;;;4934005;29;20667;-91
2021/06/27 01:13:30;;;;;;;6.10;5.47;;;18.90;99.90;;;;;;4931881;29;20636;-89
2021/06/27 01:15:58;;;;;;;9.27;5.70;;;18.70;99.90;;;;;;4933495;29;20640;-88
2021/06/27 01:18:24;;;;;;;5.60;5.10;;;18.80;99.90;;;;;;4930934;29;20634;-88
2021/06/27 01:20:51;;;;;;;5.40;4.90;;;18.70;99.90;;;;;;4929171;29;20659;-90
2021/06/27 01:23:20;;;;;;;5.50;5.20;;;18.70;99.90;;;;;;4929585;29;20643;-91
2021/06/27 01:25:51;;;;;;;5.90;5.40;;;18.70;99.90;;;;;;4928238;29;20635;-92
2021/06/27 01:28:19;;;;;;;6.13;5.40;;;18.40;99.90;;;;;;4928064;29;20635;-89
2021/06/27 01:30:46;;;;;;;5.90;5.50;;;18.20;99.90;;;;;;4933646;28;20712;-88
2021/06/27 01:33:16;;;;;;;9.20;5.80;;;18.30;99.90;;;;;;4930257;29;20638;-89
2021/06/27 01:35:44;;;;;;;7.20;6.50;;;18.40;99.90;;;;;;4933083;29;20619;-89
2021/06/27 01:38:13;;;;;;;6.87;6.20;;;18.60;99.90;;;;;;4931892;29;21239;-89
2021/06/27 01:40:41;;;;;;;6.33;5.83;;;18.60;99.90;;;;;;4935196;29;20731;-89
2021/06/27 01:43:14;;;;;;;6.53;6.07;;;18.70;99.90;;;;;;4938943;29;20638;-88
2021/06/27 01:45:46;;;;;;;6.10;5.50;;;18.60;99.90;;;;;;4949108;29;20632;-90
2021/06/27 01:48:13;;;;;;;6.40;5.90;;;18.60;99.90;;;;;;4947357;29;20620;-90
2021/06/27 01:50:42;;;;;;;6.77;6.27;;;18.70;99.90;;;;;;4938449;29;20661;-88
2021/06/27 01:53:11;;;;;;;7.10;6.40;;;18.70;99.90;;;;;;4931690;29;20642;-89
2021/06/27 01:55:38;;;;;;;7.73;7.10;;;18.80;99.90;;;;;;4927924;29;20650;-89
2021/06/27 01:58:06;;;;;;;7.03;6.43;;;18.80;99.90;;;;;;4928403;29;20685;-88
2021/06/27 02:00:33;;;;;;;6.70;6.20;;;18.80;99.90;;;;;;4930591;29;20655;-88
2021/06/27 02:03:01;;;;;;;7.33;6.70;;;18.80;99.90;;;;;;4930145;29;20634;-89
2021/06/27 02:05:29;;;;;;;7.53;7.03;;;18.80;99.90;;;;;;4928039;29;21103;-87
2021/06/27 02:07:57;;;;;;;10.20;6.83;;;18.80;99.90;;;;;;4925299;29;20632;-87
2021/06/27 02:10:26;;;;;;;7.20;6.50;;;18.60;99.90;;;;;;4927190;29;20658;-90
2021/06/27 02:12:55;;;;;;;8.00;7.03;;;18.50;99.90;;;;;;4927463;29;21022;-88
2021/06/27 02:15:24;;;;;;;7.27;6.50;;;18.50;99.90;;;;;;4930257;28;20643;-88
2021/06/27 02:17:53;;;;;;;8.23;7.63;;;18.60;99.90;;;;;;4929105;29;20670;-87
2021/06/27 02:20:24;;;;;;;8.00;7.33;;;18.60;99.90;;;;;;4928050;29;21136;-88
2021/06/27 02:22:51;;;;;;;6.50;6.00;;;18.70;99.90;;;;;;4921255;29;20671;-87
2021/06/27 02:25:18;;;;;;;8.60;7.87;;;18.70;99.90;;;;;;4926939;29;20642;-87
2021/06/27 02:27:45;;;;;;;9.00;8.30;;;18.60;99.90;;;;;;4929497;29;20623;-86
2021/06/27 02:30:13;;;;;;;7.73;7.13;;;18.70;99.90;;;;;;4928815;29;20651;-87
2021/06/27 02:32:43;;;;;;;8.50;7.90;;;18.60;99.90;;;;;;4929140;29;20615;-88
2021/06/27 02:35:11;;;;;;;8.17;7.57;;;18.60;99.90;;;;;;4928072;29;21215;-88
2021/06/27 02:37:38;;;;;;;7.50;6.90;;;18.60;99.90;;;;;;4926619;29;20671;-87
2021/06/27 02:40:08;;;;;;;7.20;6.63;;;18.50;99.90;;;;;;4928637;29;20658;-88
2021/06/27 02:42:35;;;;;;;7.47;6.97;;;18.50;99.90;;;;;;4930216;29;20634;-87
2021/06/27 02:45:03;;;;;;;8.23;7.63;;;18.50;99.90;;;;;;4928109;29;21187;-87
2021/06/27 02:47:29;;;;;;;7.03;6.50;;;18.50;99.90;;;;;;4924195;29;20630;-88
2021/06/27 02:49:58;;;;;;;7.97;7.37;;;18.50;99.90;;;;;;4931544;28;20662;-87
2021/06/27 02:52:25;;;;;;;8.07;7.47;;;18.50;99.90;;;;;;4926526;29;20628;-89
2021/06/27 02:54:52;;;;;;;7.50;7.00;;;18.40;99.90;;;;;;4933867;29;20619;-89
2021/06/27 02:57:19;;;;;;;7.23;6.63;;;18.40;99.90;;;;;;4930701;29;20676;-89
2021/06/27 02:59:45;;;;;;;7.27;6.70;;;18.50;99.90;;;;;;4927527;29;20663;-88
2021/06/27 03:02:12;;;;;;;8.27;7.33;;;18.50;99.90;;;;;;4928068;29;20635;-90
2021/06/27 03:04:39;;;;;;;8.27;7.47;;;18.50;99.90;;;;;;4928336;29;20632;-89
2021/06/27 03:07:07;;;;;;;7.70;7.13;;;18.50;99.90;;;;;;4929324;28;20623;-89
2021/06/27 03:09:34;;;;;;;7.30;6.60;;;18.30;99.90;;;;;;4927530;29;20658;-89
2021/06/27 03:12:01;;;;;;;7.63;7.00;;;18.20;99.90;;;;;;4924755;29;20645;-89
2021/06/27 03:14:28;;;;;;;8.63;7.40;;;18.30;99.90;;;;;;4927572;29;20626;-90
2021/06/27 03:16:55;;;;;;;7.40;6.70;;;18.20;99.90;;;;;;4924917;29;20662;-90
2021/06/27 03:19:22;;;;;;;7.90;6.57;;;17.90;99.90;;;;;;4927006;29;20639;-90
2021/06/27 03:21:49;;;;;;;6.60;6.20;;;17.20;99.90;;;;;;4928501;29;20627;-89
2021/06/27 03:24:17;;;;;;;7.83;7.10;;;16.80;99.90;;;;;;4928880;29;22099;-90
2021/06/27 03:26:44;;;;;;;7.03;6.53;;;16.60;99.90;;;;;;4928285;29;20645;-89
2021/06/27 03:29:11;;;;;;;7.97;7.37;;;16.50;99.90;;;;;;4932369;29;20628;-88
2021/06/27 03:31:37;;;;;;;6.43;5.90;;;16.40;99.90;;;;;;4931634;29;20637;-88
2021/06/27 03:34:04;;;;;;;7.50;6.90;;;16.20;99.90;;;;;;4926818;29;20615;-88
2021/06/27 03:36:31;;;;;;;8.40;7.80;;;16.20;99.90;;;;;;4927400;29;20622;-88
2021/06/27 03:39:04;;;;;;;8.23;7.50;;;16.10;99.90;;;;;;4926268;29;20668;-89
2021/06/27 03:41:35;;;;;;;7.77;7.03;;;16.10;99.90;;;;;;4927803;29;20659;-89
2021/06/27 03:44:02;;;;;;;9.00;8.23;;;16.00;99.90;;;;;;4930976;29;20738;-89
2021/06/27 03:46:29;;;;;;;8.03;7.43;;;16.00;99.90;;;;;;4929037;29;20641;-85
2021/06/27 03:48:56;;;;;;;8.37;7.67;;;16.00;99.90;;;;;;4927539;29;20635;-88
2021/06/27 03:51:23;;;;;;;9.27;8.03;;;15.90;99.90;;;;;;4928611;28;20655;-87
2021/06/27 03:53:50;;;;;;;9.10;8.40;;;15.90;99.90;;;;;;4928762;29;20636;-85
2021/06/27 03:56:17;;;;;;;8.63;7.97;;;15.80;99.90;;;;;;4925874;28;20642;-85
2021/06/27 03:58:45;;;;;;;8.90;8.23;;;15.80;99.90;;;;;;4927087;29;20666;-85
2021/06/27 04:01:13;;;;;;;10.03;7.90;;;15.90;99.90;;;;;;4934258;28;20663;-90
2021/06/27 04:03:40;;;;;;;9.17;8.40;;;15.80;99.90;;;;;;4951375;29;20642;-91
2021/06/27 04:06:07;;;;;;;8.67;7.97;;;15.70;99.90;;;;;;4933605;29;21168;-89
2021/06/27 04:08:36;;;;;;;9.97;9.27;;;15.70;99.90;;;;;;4928141;29;20628;-89
2021/06/27 04:11:03;;;;;;;9.97;9.27;;;15.80;99.90;;;;;;4930163;29;21035;-90
2021/06/27 04:13:31;;;;;;;9.57;8.77;;;15.90;99.90;;;;;;4927239;29;20635;-89
2021/06/27 04:16:01;;;;;;;10.53;8.70;;;15.90;99.90;;;;;;4931214;29;20639;-89
2021/06/27 04:18:28;;;;;;;16.83;10.17;;;15.90;99.90;;;;;;4929218;29;20675;-90
2021/06/27 04:20:56;;;;;;;10.23;9.30;;;16.00;99.90;;;;;;4931016;29;20679;-91
2021/06/27 04:23:25;;;;;;;10.97;10.13;;;16.10;99.90;;;;;;4928234;29;21048;-89
2021/06/27 04:25:52;;;;;;;9.87;8.97;;;16.20;99.90;;;;;;4930179;29;20635;-91
2021/06/27 04:28:19;;;;;;;18.20;9.63;;;16.20;99.90;;;;;;4936433;29;20634;-90
2021/06/27 04:30:49;;;;;;;10.33;9.63;;;16.30;99.90;;;;;;4929594;29;20650;-89
2021/06/27 04:33:18;;;;;;;11.03;10.03;;;16.30;99.90;;;;;;4932080;29;21247;-90
2021/06/27 04:35:45;;;;;;;9.43;8.70;;;16.30;99.90;;;;;;4929092;29;20624;-90
2021/06/27 04:38:16;;;;;;;10.30;9.47;;;16.30;99.90;;;;;;4928246;29;20624;-89
2021/06/27 04:40:44;;;;;;;10.67;9.87;;;16.40;99.90;;;;;;4926528;29;20655;-91
2021/06/27 04:43:11;;;;;;;10.80;9.93;;;16.50;99.90;;;;;;4929758;29;21226;-92
2021/06/27 04:45:40;;;;;;;9.70;8.70;;;16.40;99.90;;;;;;4930413;29;20643;-89
2021/06/27 04:48:08;;;;;;;9.73;8.93;;;16.40;99.90;;;;;;4925731;29;20673;-89
2021/06/27 04:50:37;;;;;;;10.30;9.53;;;16.50;99.90;;;;;;4925950;29;20663;-90
2021/06/27 04:53:04;;;;;;;10.20;9.50;;;16.50;99.90;;;;;;4928947;29;20654;-90
2021/06/27 04:55:32;;;;;;;8.53;7.83;;;16.60;99.90;;;;;;4932435;29;20615;-90
2021/06/27 04:57:59;;;;;;;11.03;8.50;;;16.70;99.90;;;;;;4934146;29;20671;-90
2021/06/27 05:00:27;;;;;;;10.03;9.33;;;16.70;99.90;;;;;;4930346;28;20865;-89
2021/06/27 05:03:01;;;;;;;8.40;7.70;;;16.70;99.90;;;;;;4928197;29;20659;-90
2021/06/27 05:05:32;;;;;;;9.17;8.57;;;16.80;99.90;;;;;;4930266;29;20673;-89
2021/06/27 05:08:01;;;;;;;8.67;7.97;;;16.90;99.90;;;;;;4923284;29;21012;-91
2021/06/27 05:10:28;;;;;;;7.90;7.30;;;17.00;99.90;;;;;;4929017;29;20635;-92
2021/06/27 05:12:55;;;;;;;7.83;7.33;;;17.10;99.90;;;;;;4925874;29;21214;-92
2021/06/27 05:15:24;;;;;;;8.53;7.90;;;17.20;99.90;;;;;;4927945;29;21078;-91
2021/06/27 05:17:52;;;;;;;8.13;7.50;;;17.30;99.90;;;;;;4931202;29;20671;-90
2021/06/27 05:20:22;;;;;;;10.33;7.80;;;17.30;99.90;;;;;;4930824;29;20611;-90
2021/06/27 05:22:50;;;;;;;8.13;7.50;;;17.40;99.90;;;;;;4927562;29;21195;-89
2021/06/27 05:25:23;;;;;;;8.90;8.10;;;17.40;99.90;;;;;;4929731;28;20618;-91
2021/06/27 05:27:50;;;;;;;8.87;7.97;;;17.40;99.90;;;;;;4927605;29;21120;-90
2021/06/27 05:30:18;;;;;;;8.60;8.00;;;17.40;99.90;;;;;;4927517;29;20646;-92
2021/06/27 05:32:44;;;;;;;8.67;8.00;;;17.50;99.90;;;;;;4928285;29;20649;-92
2021/06/27 05:35:12;;;;;;;7.70;7.00;;;17.60;99.90;;;;;;4932964;29;20627;-91
2021/06/27 05:37:39;;;;;;;7.87;7.27;;;17.80;99.90;;;;;;4932044;29;20679;-92
2021/06/27 05:40:07;;;;;;;8.23;7.63;;;17.90;99.90;;;;;;4933586;29;20649;-92
2021/06/27 05:42:40;;;;;;;11.63;8.07;;;17.90;99.90;;;;;;4931920;28;20608;-90
2021/06/27 05:45:09;;;;;;;7.90;7.20;;;17.90;99.90;;;;;;4926616;29;20672;-91
2021/06/27 05:47:37;;;;;;;8.20;7.60;;;18.00;99.90;;;;;;4931189;29;20654;-91
2021/06/27 05:50:06;;;;;;;8.53;7.73;;;18.10;99.90;;;;;;4932719;29;21629;-91
2021/06/27 05:52:33;;;;;;;9.43;8.43;;;18.10;99.90;;;;;;4930581;29;20624;-91
2021/06/27 05:55:00;;;;;;;9.40;8.40;;;18.10;99.90;;;;;;4928686;29;21242;-91
2021/06/27 05:57:27;;;;;;;9.20;8.50;;;18.10;99.90;;;;;;4928397;29;20655;-91
2021/06/27 05:59:55;;;;;;;9.07;8.23;;;18.10;99.90;;;;;;4933331;29;20623;-91
2021/06/27 06:02:22;;;;;;;9.07;8.37;;;18.10;99.90;;;;;;4934557;29;21169;-92
2021/06/27 06:04:49;;;;;;;9.23;8.40;;;18.20;99.90;;;;;;4932392;28;20631;-89
2021/06/27 06:07:16;;;;;;;9.10;8.40;;;18.30;99.90;;;;;;4929714;29;20673;-89
2021/06/27 06:09:43;;;;;;;8.60;8.00;;;18.40;99.90;;;;;;4937565;29;20631;-90
2021/06/27 06:12:10;;;;;;;9.20;8.30;;;18.30;99.90;;;;;;4938476;29;21415;-89
2021/06/27 06:14:38;;;;;;;8.60;7.80;;;18.30;99.90;;;;;;4932850;29;20656;-90
2021/06/27 06:17:07;;;;;;;8.30;7.70;;;18.30;99.90;;;;;;4931762;29;20651;-90
2021/06/27 06:19:37;;;;;;;9.43;8.60;;;18.30;99.90;;;;;;4927802;29;20666;-91
2021/06/27 06:22:04;;;;;;;8.40;7.80;;;18.50;99.90;;;;;;4928033;29;20681;-89
2021/06/27 06:24:31;;;;;;;9.70;9.00;;;18.50;99.90;;;;;;4925247;29;20627;-91
2021/06/27 06:26:58;;;;;;;8.73;7.83;;;18.40;99.90;;;;;;4930303;29;20682;-91
2021/06/27 06:29:26;;;;;;;9.30;8.50;;;18.40;99.90;;;;;;4931015;28;21162;-91
2021/06/27 06:31:53;;;;;;;8.53;7.83;;;18.50;99.90;;;;;;4933667;29;20627;-91
2021/06/27 06:34:21;;;;;;;9.10;8.40;;;18.70;99.90;;;;;;4929848;29;21189;-91
2021/06/27 06:36:48;;;;;;;9.40;8.60;;;18.60;99.90;;;;;;4930786;29;20754;-93
2021/06/27 06:39:16;;;;;;;8.60;7.80;;;18.70;99.90;;;;;;4931239;29;20705;-91
2021/06/27 06:41:42;;;;;;;11.57;7.57;;;18.80;99.90;;;;;;4934497;28;20638;-91
2021/06/27 06:44:09;;;;;;;7.20;6.70;;;18.90;99.90;;;;;;4929539;29;21521;-91
2021/06/27 06:46:37;;;;;;;7.30;6.63;;;19.10;99.90;;;;;;4923405;29;21175;-91
2021/06/27 06:49:04;;;;;;;8.67;7.97;;;19.20;99.90;;;;;;4929516;28;21187;-92
2021/06/27 06:51:32;;;;;;;7.13;6.63;;;19.50;99.90;;;;;;4932848;29;21194;-91
2021/06/27 06:54:00;;;;;;;6.40;5.90;;;19.70;99.90;;;;;;4930229;29;21426;-92
2021/06/27 06:56:27;;;;;;;7.23;6.53;;;19.90;99.90;;;;;;4930358;29;21143;-91
2021/06/27 06:58:54;;;;;;;7.97;7.27;;;20.10;99.90;;;;;;4927211;29;20675;-92
2021/06/27 07:01:22;;;;;;;7.30;6.70;;;20.10;99.90;;;;;;4924354;29;21674;-91
2021/06/27 07:03:49;;;;;;;5.53;5.20;;;20.20;99.90;;;;;;4930261;29;21486;-92
2021/06/27 07:06:18;;;;;;;6.73;6.23;;;20.30;99.90;;;;;;4926428;29;21291;-92
2021/06/27 07:08:46;;;;;;;5.70;5.20;;;20.30;99.90;;;;;;4930335;29;21215;-91
2021/06/27 07:11:13;;;;;;;6.37;5.87;;;20.30;99.90;;;;;;4928199;28;20629;-92
2021/06/27 07:13:40;;;;;;;6.10;5.70;;;20.50;99.90;;;;;;4933561;29;20658;-91
2021/06/27 07:16:07;;;;;;;6.40;6.00;;;20.60;99.90;;;;;;4926762;28;21139;-91
2021/06/27 07:18:34;;;;;;;6.60;6.10;;;20.70;99.90;;;;;;4927988;29;20766;-91
2021/06/27 07:21:02;;;;;;;6.10;5.70;;;20.70;99.90;;;;;;4928808;29;21193;-92
2021/06/27 07:23:30;;;;;;;6.80;6.30;;;20.70;99.90;;;;;;4934932;29;20636;-91
2021/06/27 07:25:58;;;;;;;6.03;5.40;;;20.80;99.90;;;;;;4928879;29;20631;-91
2021/06/27 07:28:27;;;;;;;7.40;6.10;;;21.10;99.90;;;;;;4931766;29;20659;-91
2021/06/27 07:30:55;;;;;;;5.80;5.30;;;21.20;99.90;;;;;;4929697;29;20643;-91
2021/06/27 07:33:22;;;;;;;6.50;6.00;;;21.30;99.90;;;;;;4931592;29;20646;-92
2021/06/27 07:35:49;;;;;;;5.40;5.00;;;21.50;99.90;;;;;;4928720;29;20973;-91
2021/06/27 07:38:54;;;;;;;6.70;6.10;;;21.70;99.90;;;;;;4932770;29;20682;-96
2021/06/27 07:41:33;;;;;;;6.20;5.80;;;21.90;99.90;;;;;;4941666;29;20642;-95
2021/06/27 07:44:00;;;;;;;6.17;5.40;;;22.10;99.90;;;;;;4940951;29;20729;-95
2021/06/27 07:46:27;;;;;;;9.13;5.90;;;22.10;99.90;;;;;;4946102;29;20636;-94
2021/06/27 07:48:55;;;;;;;6.23;5.83;;;22.20;99.90;;;;;;4948857;28;20655;-95
2021/06/27 07:51:22;;;;;;;5.60;4.83;;;22.20;99.90;;;;;;4929674;29;21078;-96
2021/06/27 07:53:48;;;;;;;5.53;5.10;;;22.20;99.90;;;;;;4932132;29;20643;-95
2021/06/27 07:56:16;;;;;;;4.83;4.53;;;22.30;99.90;;;;;;4931137;28;21615;-94
2021/06/27 07:58:45;;;;;;;6.10;5.13;;;22.30;99.90;;;;;;4926944;29;20686;-96
2021/06/27 08:01:12;;;;;;;6.40;6.00;;;22.40;99.90;;;;;;4931313;29;20697;-95
2021/06/27 08:03:39;;;;;;;5.00;4.60;;;22.70;99.90;;;;;;4929753;29;20627;-95
2021/06/27 08:06:06;;;;;;;5.40;4.90;;;22.70;99.90;;;;;;4933443;29;20646;-95
2021/06/27 08:08:32;;;;;;;4.87;4.57;;;23.00;99.90;;;;;;4934403;29;20654;-94
2021/06/27 08:11:01;;;;;;;5.27;4.87;;;23.10;99.90;;;;;;4933611;29;20635;-96
2021/06/27 08:13:28;;;;;;;6.07;5.57;;;23.20;99.90;;;;;;4930607;29;20722;-96
2021/06/27 08:15:59;;;;;;;4.50;4.20;;;23.30;99.90;;;;;;4933776;29;20643;-92
2021/06/27 08:18:26;;;;;;;4.70;4.37;;;23.50;99.90;;;;;;4926656;29;21256;-92
2021/06/27 08:20:53;;;;;;;5.50;4.57;;;23.60;99.90;;;;;;4935975;29;20646;-92
2021/06/27 08:23:20;;;;;;;3.87;3.53;;;23.80;99.90;;;;;;4934528;29;20645;-92
2021/06/27 08:25:49;;;;;;;5.07;4.67;;;23.80;99.90;;;;;;4937144;29;20641;-95
2021/06/27 08:46:25;;;;;;;3.67;3.47;;;24.30;99.90;;;;;;5410679;23;20689;-96
2021/06/27 08:54:14;;;;;;;3.43;3.03;;;24.60;99.90;;;;;;5131364;23;20757;-96
2021/06/27 08:59:24;;;;;;;3.90;3.40;;;24.50;99.90;;;;;;4967821;28;20686;-96
2021/06/27 09:02:10;;;;;;;4.20;3.80;;;24.80;99.90;;;;;;4968875;28;20622;-95
2021/06/27 09:07:39;;;;;;;2.93;2.73;;;25.10;99.90;;;;;;5275827;23;22719;-96
2021/06/27 09:18:07;;;;;;;3.77;3.57;;;25.40;99.90;;;;;;4968065;28;20720;-96
2021/06/27 09:20:34;;;;;;;3.40;3.03;;;25.50;99.90;;;;;;4974350;28;20670;-96
2021/06/27 09:23:04;;;;;;;3.77;3.33;;;25.60;99.90;;;;;;4979574;28;21042;-96
2021/06/27 09:25:33;;;;;;;3.30;3.00;;;25.50;98.70;;;;;;4969525;28;20681;-95
2021/06/27 09:28:06;;;;;;;3.57;3.37;;;25.50;99.40;;;;;;4964952;28;20671;-93
2021/06/27 09:30:36;;;;;;;3.17;2.97;;;25.60;99.40;;;;;;4954772;28;20641;-96
2021/06/27 09:33:08;;;;;;;3.70;3.13;;;25.60;98.90;;;;;;4953489;28;20748;-93
2021/06/27 09:35:48;;;;;;;2.80;2.60;;;25.70;99.20;;;;;;4955017;28;20658;-94
2021/06/27 09:38:28;;;;;;;3.17;2.97;;;25.90;99.00;;;;;;4947277;28;20634;-93
2021/06/27 09:40:58;;;;;;;3.10;2.90;;;25.90;99.00;;;;;;4948503;28;20684;-93
2021/06/27 09:43:28;;;;;;;3.20;3.00;;;25.90;97.70;;;;;;4946473;28;20634;-93
2021/06/27 09:45:57;;;;;;;2.70;2.60;;;26.10;98.90;;;;;;4946182;28;20770;-93
2021/06/27 09:48:28;;;;;;;3.17;2.80;;;26.30;98.40;;;;;;4946848;28;20632;-94
2021/06/27 09:50:58;;;;;;;3.27;2.97;;;26.40;98.20;;;;;;4957937;28;20622;-94
2021/06/27 09:53:37;;;;;;;2.87;2.60;;;26.20;96.00;;;;;;4954103;28;20645;-93
2021/06/27 09:56:06;;;;;;;3.20;2.90;;;26.40;96.90;;;;;;4953281;28;20666;-94
2021/06/27 09:58:39;;;;;;;2.80;2.60;;;26.60;95.70;;;;;;4945581;28;20635;-93
2021/06/27 10:01:25;;;;;;;3.53;3.27;;;26.80;95.50;;;;;;4949237;28;20637;-94
2021/06/27 10:03:57;;;;;;;2.63;2.43;;;26.80;95.20;;;;;;4950129;28;20630;-93
2021/06/27 10:06:27;;;;;;;3.03;2.83;;;27.00;95.90;;;;;;4934195;29;20651;-93
2021/06/27 10:08:58;;;;;;;3.43;2.77;;;26.90;95.00;;;;;;4947070;28;20630;-93
2021/06/27 10:11:27;;;;;;;2.70;2.50;;;27.10;95.20;;;;;;4950914;28;20662;-94
2021/06/27 10:13:55;;;;;;;3.80;2.63;;;27.30;95.00;;;;;;4948930;28;20620;-92
2021/06/27 10:16:31;;;;;;;3.03;2.80;;;27.50;94.30;;;;;;4951696;28;20638;-95
2021/06/27 10:19:00;;;;;;;2.67;2.57;;;27.70;94.70;;;;;;4947868;28;20614;-93
2021/06/27 10:21:29;;;;;;;2.10;2.00;;;27.80;93.90;;;;;;4949384;28;21119;-94
2021/06/27 10:23:57;;;;;;;2.40;2.30;;;28.20;93.50;;;;;;4947453;28;21039;-93
2021/06/27 10:26:26;;;;;;;2.80;2.60;;;28.30;93.30;;;;;;4949418;28;20654;-93
2021/06/27 10:28:53;;;;;;;3.10;2.90;;;28.20;92.30;;;;;;4946094;28;20670;-94
2021/06/27 10:31:23;;;;;;;2.77;2.57;;;28.50;92.70;;;;;;4951208;28;21004;-94
2021/06/27 10:33:52;;;;;;;2.67;2.37;;;28.30;92.70;;;;;;4945028;28;20680;-94
2021/06/27 10:36:30;;;;;;;3.20;3.00;;;28.10;92.10;;;;;;4951477;28;20641;-96
2021/06/27 10:39:00;;;;;;;3.07;2.87;;;28.00;94.00;;;;;;4954949;28;20673;-95
2021/06/27 10:41:56;;;;;;;2.47;2.27;;;28.30;92.20;;;;;;4955664;28;20647;-94
2021/06/27 10:44:26;;;;;;;2.80;2.60;;;28.50;92.40;;;;;;4956350;28;20649;-95
2021/06/27 10:47:01;;;;;;;2.37;2.27;;;28.70;92.30;;;;;;4954761;28;20642;-95
2021/06/27 10:49:54;;;;;;;2.53;2.33;;;28.80;92.20;;;;;;4960172;28;20632;-94
2021/06/27 10:52:23;;;;;;;3.13;2.93;;;29.10;90.20;;;;;;4963828;28;20621;-95
2021/06/27 10:55:21;;;;;;;4.03;2.90;;;28.80;91.60;;;;;;4952401;28;20645;-95
2021/06/27 10:57:57;;;;;;;3.03;2.80;;;28.90;88.40;;;;;;4946829;28;21366;-95
2021/06/27 11:00:26;;;;;;;3.10;2.80;;;28.80;88.30;;;;;;4948283;28;20665;-95
2021/06/27 11:02:53;;;;;;;2.40;2.20;;;29.00;90.80;;;;;;4945616;28;22778;-95
2021/06/27 11:05:46;;;;;;;2.40;2.30;;;29.00;88.50;;;;;;4950178;28;21003;-94
2021/06/27 11:08:39;;;;;;;2.40;2.30;;;29.00;88.20;;;;;;4951103;28;20646;-96
2021/06/27 11:11:10;;;;;;;3.10;2.80;;;29.20;89.20;;;;;;4952802;28;21143;-95
2021/06/27 11:13:39;;;;;;;2.87;2.67;;;29.20;91.10;;;;;;4948729;28;20640;-93
2021/06/27 11:16:14;;;;;;;2.80;2.60;;;29.60;90.70;;;;;;4944556;28;20660;-94
2021/06/27 11:18:44;;;;;;;2.50;2.30;;;29.80;88.70;;;;;;4946719;28;20657;-94
2021/06/27 11:21:38;;;;;;;2.50;2.40;;;30.00;87.90;;;;;;4945580;28;20686;-94
2021/06/27 11:24:10;;;;;;;2.30;2.20;;;30.70;84.30;;;;;;4944062;28;20639;-94
2021/06/27 11:26:54;;;;;;;3.23;3.03;;;30.30;85.70;;;;;;4944327;28;20645;-94
2021/06/27 11:29:44;;;;;;;3.13;2.93;;;30.20;80.80;;;;;;4948475;28;20615;-94
2021/06/27 11:32:41;;;;;;;3.03;2.83;;;30.60;82.30;;;;;;4944692;28;20666;-94
2021/06/27 11:35:09;;;;;;;3.10;2.80;;;30.50;79.20;;;;;;4888782;29;20622;-93
2021/06/27 11:37:44;;;;;;;2.73;2.53;;;30.70;83.10;;;;;;4928663;28;20734;-94
2021/06/27 11:40:15;;;;;;;2.43;2.33;;;31.20;81.70;;;;;;4944062;28;20668;-92
2021/06/27 11:42:50;;;;;;;6.00;2.60;;;31.30;80.50;;;;;;4950037;28;20667;-94
2021/06/27 11:45:39;;;;;;;2.80;2.40;;;31.00;78.30;;;;;;4945916;28;21211;-93
2021/06/27 11:48:09;;;;;;;2.97;2.77;;;30.90;75.70;;;;;;4950264;28;21188;-93
2021/06/27 11:50:38;;;;;;;2.57;2.37;;;30.90;76.40;;;;;;4946442;28;20670;-93
2021/06/27 11:53:07;;;;;;;3.23;2.40;;;31.90;74.00;;;;;;4946272;28;21244;-92
2021/06/27 11:55:37;;;;;;;2.60;2.40;;;32.10;73.80;;;;;;4946387;28;20641;-93
2021/06/27 11:58:06;;;;;;;2.90;2.70;;;32.30;72.60;;;;;;4945486;28;20641;-92
2021/06/27 12:00:37;;;;;;;4.30;2.30;;;31.70;70.40;;;;;;4947217;28;20665;-92
2021/06/27 12:03:06;;;;;;;2.70;2.50;;;31.50;72.10;;;;;;4929449;28;20665;-93
2021/06/27 12:05:33;;;;;;;2.80;2.60;;;32.00;73.60;;;;;;4946608;28;20637;-92
2021/06/27 12:08:11;;;;;;;2.47;2.27;;;31.90;71.50;;;;;;4948750;28;20661;-92
2021/06/27 12:10:40;;;;;;;2.50;2.40;;;31.60;70.80;;;;;;4952968;28;20617;-94
2021/06/27 12:13:09;;;;;;;2.60;2.40;;;32.40;69.40;;;;;;4949620;28;20640;-93
2021/06/27 12:15:39;;;;;;;2.10;2.00;;;31.90;70.10;;;;;;4946204;28;20641;-93
2021/06/27 12:18:14;;;;;;;3.60;2.67;;;32.10;68.80;;;;;;4944468;28;20632;-93
2021/06/27 12:20:46;;;;;;;2.30;2.20;;;32.40;70.50;;;;;;4945992;28;20649;-92
2021/06/27 12:23:15;;;;;;;2.17;2.07;;;32.20;70.40;;;;;;4947042;28;20640;-93
2021/06/27 12:25:47;;;;;;;2.43;2.20;;;32.30;71.00;;;;;;4948773;28;20633;-92
2021/06/27 12:28:16;;;;;;;2.17;2.07;;;32.70;70.00;;;;;;4948857;28;20625;-93
2021/06/27 12:30:50;;;;;;;2.30;2.20;;;32.90;70.60;;;;;;4948183;28;21212;-92
2021/06/27 12:33:22;;;;;;;3.87;2.10;;;33.00;67.30;;;;;;4948439;28;21193;-93
2021/06/27 12:35:54;;;;;;;2.20;2.10;;;32.40;65.90;;;;;;4946575;28;20643;-93
2021/06/27 12:38:22;;;;;;;2.67;2.47;;;33.00;62.80;;;;;;4949403;28;20649;-93
2021/06/27 12:40:52;;;;;;;2.50;2.27;;;33.00;64.70;;;;;;4944883;28;20670;-92
2021/06/27 12:43:24;;;;;;;2.50;2.30;;;33.10;65.60;;;;;;4944703;28;20633;-93
2021/06/27 12:46:17;;;;;;;3.20;3.00;;;33.00;65.20;;;;;;4947220;28;20598;-92
2021/06/27 12:48:45;;;;;;;2.47;2.20;;;33.00;67.60;;;;;;4944101;28;20659;-92
2021/06/27 12:51:30;;;;;;;2.33;2.20;;;33.20;62.50;;;;;;4947947;28;20753;-93
2021/06/27 12:54:12;;;;;;;2.17;1.93;;;33.60;62.70;;;;;;4947964;28;20692;-93
2021/06/27 12:56:48;;;;;;;2.63;2.43;;;33.50;61.40;;;;;;4948841;28;20641;-92
2021/06/27 12:59:15;;;;;;;2.70;2.50;;;33.30;62.60;;;;;;4935472;28;20639;-92
2021/06/27 13:02:01;;;;;;;2.33;2.23;;;33.70;63.70;;;;;;4945417;28;20685;-93
2021/06/27 13:04:30;;;;;;;2.30;2.20;;;33.60;60.90;;;;;;4939715;28;20654;-93
2021/06/27 13:06:58;;;;;;;3.53;2.70;;;33.10;61.70;;;;;;4936285;28;20632;-93
2021/06/27 13:09:28;;;;;;;2.23;2.13;;;33.30;63.20;;;;;;4947916;28;20625;-93
2021/06/27 13:12:17;;;;;;;2.27;2.17;;;33.40;61.60;;;;;;4950273;28;21261;-93
2021/06/27 13:14:48;;;;;;;2.90;2.70;;;33.50;61.50;;;;;;4952336;28;20709;-93
2021/06/27 13:17:18;;;;;;;2.43;2.30;;;33.10;60.60;;;;;;4952764;28;20677;-91
2021/06/27 13:20:12;;;;;;;2.57;2.40;;;32.90;62.40;;;;;;4953519;28;20630;-92
2021/06/27 13:22:57;;;;;;;2.60;2.40;;;33.00;63.20;;;;;;4947808;28;20647;-92
2021/06/27 13:25:36;;;;;;;2.53;2.33;;;33.80;59.30;;;;;;4943019;28;21256;-93
2021/06/27 13:28:07;;;;;;;2.67;2.47;;;33.60;60.70;;;;;;4942740;28;21252;-92
2021/06/27 13:30:45;;;;;;;2.37;2.27;;;33.60;63.50;;;;;;4947351;28;20626;-93
2021/06/27 13:33:14;;;;;;;2.37;2.20;;;33.40;62.60;;;;;;4951433;28;20632;-92
2021/06/27 13:35:42;;;;;;;2.30;2.20;;;33.70;63.30;;;;;;4948269;28;21004;-92
2021/06/27 13:38:11;;;;;;;2.57;2.37;;;33.90;59.30;;;;;;4944996;28;20606;-92